sensor_id;sensor_type;location;lat;lon;timestamp;pressure;altitude;pressure_sealevel;temperature;humidity
79144;BME280;68551;47.484;19.092;2023-05-10T00:00:09;100627.91;;;12.91;61.81
79144;BME280;68551;47.484;19.092;2023-05-10T00:03:17;100620.69;;;12.78;62.12
79144;BME280;68551;47.484;19.092;2023-05-10T00:06:20;100622.03;;;12.75;62.68
79144;BME280;68551;47.484;19.092;2023-05-10T00:09:22;100630.00;;;12.77;62.89
79144;BME280;68551;47.484;19.092;2023-05-10T00:12:25;100620.22;;;12.69;63.09
79144;BME280;68551;47.484;19.092;2023-05-10T00:15:29;100629.47;;;12.68;63.10
79144;BME280;68551;47.484;19.092;2023-05-10T00:18:34;100635.88;;;12.62;63.25
79144;BME280;68551;47.484;19.092;2023-05-10T00:21:37;100628.16;;;12.59;64.01
79144;BME280;68551;47.484;19.092;2023-05-10T00:24:39;100623.59;;;12.53;64.31
79144;BME280;68551;47.484;19.092;2023-05-10T00:27:44;100624.31;;;12.49;63.75
79144;BME280;68551;47.484;19.092;2023-05-10T00:30:46;100629.09;;;12.35;63.97
79144;BME280;68551;47.484;19.092;2023-05-10T00:33:54;100616.25;;;12.35;63.83
79144;BME280;68551;47.484;19.092;2023-05-10T00:37:01;100620.91;;;12.35;63.95
79144;BME280;68551;47.484;19.092;2023-05-10T00:40:08;100618.31;;;12.22;64.36
79144;BME280;68551;47.484;19.092;2023-05-10T00:43:15;100623.50;;;12.12;64.55
79144;BME280;68551;47.484;19.092;2023-05-10T00:46:18;100626.53;;;12.03;66.23
79144;BME280;68551;47.484;19.092;2023-05-10T00:49:20;100622.53;;;11.88;66.67
79144;BME280;68551;47.484;19.092;2023-05-10T00:52:29;100628.88;;;11.82;66.83
79144;BME280;68551;47.484;19.092;2023-05-10T00:55:35;100619.06;;;11.74;67.09
79144;BME280;68551;47.484;19.092;2023-05-10T00:58:40;100616.34;;;11.74;66.88
79144;BME280;68551;47.484;19.092;2023-05-10T01:01:49;100615.44;;;11.80;67.26
79144;BME280;68551;47.484;19.092;2023-05-10T01:04:51;100616.03;;;11.64;67.62
79144;BME280;68551;47.484;19.092;2023-05-10T01:07:54;100613.13;;;11.59;67.52
79144;BME280;68551;47.484;19.092;2023-05-10T01:10:59;100610.69;;;11.51;68.79
79144;BME280;68551;47.484;19.092;2023-05-10T01:14:02;100615.31;;;11.50;68.76
79144;BME280;68551;47.484;19.092;2023-05-10T01:17:06;100597.19;;;11.56;67.73
79144;BME280;68551;47.484;19.092;2023-05-10T01:20:10;100616.91;;;11.58;68.19
79144;BME280;68551;47.484;19.092;2023-05-10T01:23:36;100599.03;;;11.62;68.37
79144;BME280;68551;47.484;19.092;2023-05-10T01:36:29;100599.19;;;11.67;68.42
79144;BME280;68551;47.484;19.092;2023-05-10T01:42:47;100606.53;;;11.66;68.42
79144;BME280;68551;47.484;19.092;2023-05-10T01:49:03;100603.31;;;11.76;68.14
79144;BME280;68551;47.484;19.092;2023-05-10T01:52:14;100603.63;;;11.86;67.05
79144;BME280;68551;47.484;19.092;2023-05-10T01:55:20;100594.91;;;11.78;68.00
79144;BME280;68551;47.484;19.092;2023-05-10T01:58:29;100603.00;;;11.84;67.57
79144;BME280;68551;47.484;19.092;2023-05-10T02:01:33;100597.38;;;11.79;66.79
79144;BME280;68551;47.484;19.092;2023-05-10T02:04:37;100583.16;;;11.77;66.85
79144;BME280;68551;47.484;19.092;2023-05-10T02:07:41;100595.22;;;11.88;66.87
79144;BME280;68551;47.484;19.092;2023-05-10T02:10:47;100577.16;;;11.87;66.43
79144;BME280;68551;47.484;19.092;2023-05-10T02:13:51;100591.50;;;12.00;65.49
79144;BME280;68551;47.484;19.092;2023-05-10T02:17:00;100581.06;;;12.09;64.46
79144;BME280;68551;47.484;19.092;2023-05-10T02:20:06;100581.91;;;12.10;64.86
79144;BME280;68551;47.484;19.092;2023-05-10T02:23:09;100583.34;;;12.12;65.43
79144;BME280;68551;47.484;19.092;2023-05-10T02:26:15;100588.75;;;12.19;64.57
79144;BME280;68551;47.484;19.092;2023-05-10T02:29:22;100576.28;;;12.23;64.53
79144;BME280;68551;47.484;19.092;2023-05-10T02:32:27;100573.09;;;12.26;65.21
79144;BME280;68551;47.484;19.092;2023-05-10T02:35:31;100576.69;;;12.08;65.38
79144;BME280;68551;47.484;19.092;2023-05-10T02:38:38;100580.06;;;12.22;64.59
79144;BME280;68551;47.484;19.092;2023-05-10T02:41:50;100583.75;;;12.16;64.46
79144;BME280;68551;47.484;19.092;2023-05-10T02:45:00;100585.09;;;12.25;63.86
79144;BME280;68551;47.484;19.092;2023-05-10T02:48:04;100585.09;;;12.25;63.18
79144;BME280;68551;47.484;19.092;2023-05-10T02:51:07;100578.88;;;12.18;63.33
79144;BME280;68551;47.484;19.092;2023-05-10T02:54:19;100585.69;;;12.08;63.48
79144;BME280;68551;47.484;19.092;2023-05-10T02:57:26;100587.75;;;12.13;64.51
79144;BME280;68551;47.484;19.092;2023-05-10T03:00:29;100562.19;;;12.07;63.13
79144;BME280;68551;47.484;19.092;2023-05-10T03:03:33;100583.13;;;12.14;62.34
79144;BME280;68551;47.484;19.092;2023-05-10T03:06:35;100587.03;;;12.06;63.23
79144;BME280;68551;47.484;19.092;2023-05-10T03:09:39;100589.03;;;12.11;63.13
79144;BME280;68551;47.484;19.092;2023-05-10T03:16:27;100582.78;;;11.92;63.30
79144;BME280;68551;47.484;19.092;2023-05-10T03:19:48;100585.41;;;11.98;63.78
79144;BME280;68551;47.484;19.092;2023-05-10T03:23:00;100579.72;;;12.00;63.85
79144;BME280;68551;47.484;19.092;2023-05-10T03:26:04;100584.69;;;11.91;63.68
79144;BME280;68551;47.484;19.092;2023-05-10T03:29:08;100576.03;;;11.76;63.98
79144;BME280;68551;47.484;19.092;2023-05-10T03:32:11;100578.44;;;11.84;62.98
79144;BME280;68551;47.484;19.092;2023-05-10T03:35:13;100572.25;;;11.77;63.02
79144;BME280;68551;47.484;19.092;2023-05-10T03:38:17;100573.22;;;11.83;63.45
79144;BME280;68551;47.484;19.092;2023-05-10T03:41:20;100581.78;;;11.86;63.27
79144;BME280;68551;47.484;19.092;2023-05-10T03:44:23;100561.72;;;11.74;62.49
79144;BME280;68551;47.484;19.092;2023-05-10T03:47:28;100569.19;;;11.85;63.16
79144;BME280;68551;47.484;19.092;2023-05-10T03:50:34;100577.84;;;11.82;62.80
79144;BME280;68551;47.484;19.092;2023-05-10T03:53:39;100545.41;;;11.67;63.33
79144;BME280;68551;47.484;19.092;2023-05-10T03:56:44;100582.78;;;11.92;62.38
79144;BME280;68551;47.484;19.092;2023-05-10T03:59:49;100581.34;;;11.89;62.82
79144;BME280;68551;47.484;19.092;2023-05-10T04:02:52;100584.34;;;11.81;63.52
79144;BME280;68551;47.484;19.092;2023-05-10T04:05:59;100574.19;;;11.88;62.47
79144;BME280;68551;47.484;19.092;2023-05-10T04:09:04;100583.75;;;11.97;62.88
79144;BME280;68551;47.484;19.092;2023-05-10T04:12:06;100569.97;;;11.92;62.48
79144;BME280;68551;47.484;19.092;2023-05-10T04:15:11;100578.50;;;12.14;62.40
79144;BME280;68551;47.484;19.092;2023-05-10T04:18:14;100563.94;;;12.02;61.57
79144;BME280;68551;47.484;19.092;2023-05-10T04:21:16;100561.44;;;12.00;62.43
79144;BME280;68551;47.484;19.092;2023-05-10T04:24:18;100573.44;;;11.99;62.79
79144;BME280;68551;47.484;19.092;2023-05-10T04:27:21;100579.94;;;11.98;61.89
79144;BME280;68551;47.484;19.092;2023-05-10T04:30:24;100583.28;;;12.00;62.71
79144;BME280;68551;47.484;19.092;2023-05-10T04:33:27;100575.03;;;11.89;62.87
79144;BME280;68551;47.484;19.092;2023-05-10T04:36:31;100580.06;;;11.92;62.28
79144;BME280;68551;47.484;19.092;2023-05-10T04:39:37;100584.03;;;12.07;63.08
79144;BME280;68551;47.484;19.092;2023-05-10T04:42:43;100573.25;;;12.31;61.95
79144;BME280;68551;47.484;19.092;2023-05-10T04:45:46;100572.75;;;12.64;61.60
79144;BME280;68551;47.484;19.092;2023-05-10T04:48:52;100576.63;;;12.86;59.97
79144;BME280;68551;47.484;19.092;2023-05-10T04:51:55;100582.78;;;13.23;58.82
79144;BME280;68551;47.484;19.092;2023-05-10T04:54:57;100579.81;;;13.48;58.50
79144;BME280;68551;47.484;19.092;2023-05-10T04:58:04;100570.78;;;13.59;57.63
79144;BME280;68551;47.484;19.092;2023-05-10T05:01:07;100582.66;;;13.53;58.16
79144;BME280;68551;47.484;19.092;2023-05-10T05:04:10;100581.25;;;13.27;57.97
79144;BME280;68551;47.484;19.092;2023-05-10T05:07:14;100582.31;;;13.49;57.82
79144;BME280;68551;47.484;19.092;2023-05-10T05:10:19;100583.84;;;13.69;56.40
79144;BME280;68551;47.484;19.092;2023-05-10T05:13:24;100593.84;;;13.87;56.84
79144;BME280;68551;47.484;19.092;2023-05-10T05:16:30;100587.19;;;13.71;56.39
79144;BME280;68551;47.484;19.092;2023-05-10T05:19:33;100587.00;;;13.07;58.76
79144;BME280;68551;47.484;19.092;2023-05-10T05:22:36;100593.38;;;13.31;57.49
79144;BME280;68551;47.484;19.092;2023-05-10T05:25:39;100595.16;;;13.37;58.79
79144;BME280;68551;47.484;19.092;2023-05-10T05:28:43;100597.53;;;13.22;59.11
79144;BME280;68551;47.484;19.092;2023-05-10T05:31:46;100605.78;;;13.45;58.00
79144;BME280;68551;47.484;19.092;2023-05-10T05:34:48;100595.50;;;13.64;58.09
79144;BME280;68551;47.484;19.092;2023-05-10T05:37:54;100607.19;;;13.71;57.77
79144;BME280;68551;47.484;19.092;2023-05-10T05:40:56;100609.59;;;14.19;56.74
79144;BME280;68551;47.484;19.092;2023-05-10T05:43:58;100607.19;;;14.63;55.19
79144;BME280;68551;47.484;19.092;2023-05-10T05:47:03;100607.31;;;14.68;55.15
79144;BME280;68551;47.484;19.092;2023-05-10T05:50:06;100609.16;;;14.79;54.43
79144;BME280;68551;47.484;19.092;2023-05-10T05:53:09;100606.81;;;14.43;55.57
79144;BME280;68551;47.484;19.092;2023-05-10T05:56:11;100608.84;;;14.93;53.66
79144;BME280;68551;47.484;19.092;2023-05-10T05:59:18;100617.00;;;14.87;54.21
79144;BME280;68551;47.484;19.092;2023-05-10T06:02:21;100608.19;;;15.02;53.90
79144;BME280;68551;47.484;19.092;2023-05-10T06:05:23;100613.53;;;15.42;52.91
79144;BME280;68551;47.484;19.092;2023-05-10T06:08:30;100609.06;;;15.91;51.29
79144;BME280;68551;47.484;19.092;2023-05-10T06:11:32;100598.59;;;16.10;50.24
79144;BME280;68551;47.484;19.092;2023-05-10T06:14:39;100609.53;;;16.05;50.20
79144;BME280;68551;47.484;19.092;2023-05-10T06:17:44;100605.63;;;16.01;50.62
79144;BME280;68551;47.484;19.092;2023-05-10T06:20:51;100631.66;;;15.77;52.66
79144;BME280;68551;47.484;19.092;2023-05-10T06:23:56;100627.69;;;14.72;55.03
79144;BME280;68551;47.484;19.092;2023-05-10T06:26:58;100633.38;;;14.54;56.44
79144;BME280;68551;47.484;19.092;2023-05-10T06:30:02;100619.38;;;15.29;53.99
79144;BME280;68551;47.484;19.092;2023-05-10T06:33:16;100619.19;;;15.86;53.29
79144;BME280;68551;47.484;19.092;2023-05-10T06:36:18;100627.03;;;15.60;53.46
79144;BME280;68551;47.484;19.092;2023-05-10T06:39:21;100627.84;;;15.78;53.91
79144;BME280;68551;47.484;19.092;2023-05-10T06:42:23;100609.28;;;15.68;53.54
79144;BME280;68551;47.484;19.092;2023-05-10T06:45:29;100634.75;;;15.80;53.73
79144;BME280;68551;47.484;19.092;2023-05-10T06:48:34;100632.63;;;16.48;51.36
79144;BME280;68551;47.484;19.092;2023-05-10T06:51:36;100621.69;;;16.53;51.88
79144;BME280;68551;47.484;19.092;2023-05-10T06:54:39;100620.97;;;16.84;50.54
79144;BME280;68551;47.484;19.092;2023-05-10T06:57:41;100611.91;;;17.90;48.23
79144;BME280;68551;47.484;19.092;2023-05-10T07:00:46;100605.19;;;17.76;47.74
79144;BME280;68551;47.484;19.092;2023-05-10T07:03:51;100612.91;;;17.74;48.50
79144;BME280;68551;47.484;19.092;2023-05-10T07:06:57;100617.75;;;18.61;46.03
79144;BME280;68551;47.484;19.092;2023-05-10T07:09:59;100612.28;;;18.81;45.07
79144;BME280;68551;47.484;19.092;2023-05-10T07:13:04;100614.00;;;19.43;43.94
79144;BME280;68551;47.484;19.092;2023-05-10T07:16:12;100623.09;;;16.55;49.77
79144;BME280;68551;47.484;19.092;2023-05-10T07:19:14;100617.50;;;16.72;49.75
79144;BME280;68551;47.484;19.092;2023-05-10T07:22:17;100610.97;;;16.78;49.74
79144;BME280;68551;47.484;19.092;2023-05-10T07:25:19;100610.59;;;16.48;50.39
79144;BME280;68551;47.484;19.092;2023-05-10T07:28:26;100606.09;;;17.86;47.34
79144;BME280;68551;47.484;19.092;2023-05-10T07:31:31;100606.03;;;17.39;47.73
79144;BME280;68551;47.484;19.092;2023-05-10T07:34:33;100602.53;;;17.17;48.24
79144;BME280;68551;47.484;19.092;2023-05-10T07:37:39;100601.94;;;16.83;48.47
79144;BME280;68551;47.484;19.092;2023-05-10T07:40:44;100585.47;;;17.57;46.40
79144;BME280;68551;47.484;19.092;2023-05-10T07:43:51;100588.56;;;18.08;46.69
79144;BME280;68551;47.484;19.092;2023-05-10T07:47:00;100591.88;;;18.92;43.76
79144;BME280;68551;47.484;19.092;2023-05-10T07:50:05;100599.63;;;19.56;41.76
79144;BME280;68551;47.484;19.092;2023-05-10T07:53:08;100600.66;;;17.59;46.94
79144;BME280;68551;47.484;19.092;2023-05-10T07:56:28;100595.00;;;17.39;47.88
79144;BME280;68551;47.484;19.092;2023-05-10T07:59:31;100596.81;;;17.60;47.38
79144;BME280;68551;47.484;19.092;2023-05-10T08:02:37;100602.56;;;17.22;48.70
79144;BME280;68551;47.484;19.092;2023-05-10T08:05:39;100609.56;;;18.19;46.07
79144;BME280;68551;47.484;19.092;2023-05-10T08:08:42;100594.19;;;17.76;47.74
79144;BME280;68551;47.484;19.092;2023-05-10T08:11:47;100602.31;;;18.70;44.26
79144;BME280;68551;47.484;19.092;2023-05-10T08:14:49;100606.59;;;18.35;44.59
79144;BME280;68551;47.484;19.092;2023-05-10T08:17:52;100601.97;;;18.56;43.74
79144;BME280;68551;47.484;19.092;2023-05-10T08:20:57;100611.75;;;17.69;46.10
79144;BME280;68551;47.484;19.092;2023-05-10T08:23:59;100625.63;;;17.48;46.64
79144;BME280;68551;47.484;19.092;2023-05-10T08:27:01;100593.91;;;17.40;47.26
79144;BME280;68551;47.484;19.092;2023-05-10T08:30:04;100592.13;;;18.03;46.36
79144;BME280;68551;47.484;19.092;2023-05-10T08:33:07;100593.94;;;18.45;44.78
79144;BME280;68551;47.484;19.092;2023-05-10T08:36:11;100597.91;;;19.86;41.28
79144;BME280;68551;47.484;19.092;2023-05-10T08:39:19;100590.22;;;19.72;41.56
79144;BME280;68551;47.484;19.092;2023-05-10T08:42:34;100602.13;;;17.72;45.26
79144;BME280;68551;47.484;19.092;2023-05-10T08:45:42;100587.28;;;17.41;46.37
79144;BME280;68551;47.484;19.092;2023-05-10T08:48:48;100594.34;;;18.11;44.38
79144;BME280;68551;47.484;19.092;2023-05-10T08:51:54;100594.75;;;18.40;43.54
79144;BME280;68551;47.484;19.092;2023-05-10T08:54:58;100595.88;;;17.87;45.14
79144;BME280;68551;47.484;19.092;2023-05-10T08:58:06;100590.28;;;18.24;45.27
79144;BME280;68551;47.484;19.092;2023-05-10T09:01:10;100599.31;;;18.09;45.75
79144;BME280;68551;47.484;19.092;2023-05-10T09:04:14;100591.41;;;18.33;44.35
79144;BME280;68551;47.484;19.092;2023-05-10T09:07:19;100606.38;;;17.90;45.70
79144;BME280;68551;47.484;19.092;2023-05-10T09:10:22;100604.69;;;17.15;47.22
79144;BME280;68551;47.484;19.092;2023-05-10T09:13:28;100593.75;;;17.94;45.85
79144;BME280;68551;47.484;19.092;2023-05-10T09:16:30;100577.41;;;17.87;45.79
79144;BME280;68551;47.484;19.092;2023-05-10T09:19:35;100591.97;;;18.35;44.43
79144;BME280;68551;47.484;19.092;2023-05-10T09:22:39;100594.31;;;17.59;45.75
79144;BME280;68551;47.484;19.092;2023-05-10T09:25:42;100591.03;;;17.25;46.46
79144;BME280;68551;47.484;19.092;2023-05-10T09:28:55;100583.28;;;17.54;45.40
79144;BME280;68551;47.484;19.092;2023-05-10T09:32:03;100582.09;;;17.13;47.09
79144;BME280;68551;47.484;19.092;2023-05-10T09:35:14;100573.38;;;18.05;45.97
79144;BME280;68551;47.484;19.092;2023-05-10T09:38:17;100595.88;;;17.87;44.31
79144;BME280;68551;47.484;19.092;2023-05-10T09:41:23;100576.63;;;17.92;44.89
79144;BME280;68551;47.484;19.092;2023-05-10T09:44:26;100578.78;;;18.47;43.07
79144;BME280;68551;47.484;19.092;2023-05-10T09:47:34;100575.75;;;18.54;43.49
79144;BME280;68551;47.484;19.092;2023-05-10T09:50:39;100576.56;;;18.49;43.71
79144;BME280;68551;47.484;19.092;2023-05-10T09:53:42;100583.47;;;18.47;43.33
79144;BME280;68551;47.484;19.092;2023-05-10T09:56:45;100575.84;;;18.01;45.08
79144;BME280;68551;47.484;19.092;2023-05-10T09:59:51;100573.63;;;17.56;45.81
79144;BME280;68551;47.484;19.092;2023-05-10T10:02:57;100567.78;;;17.90;44.63
79144;BME280;68551;47.484;19.092;2023-05-10T10:06:00;100561.66;;;18.45;43.48
79144;BME280;68551;47.484;19.092;2023-05-10T10:09:03;100564.06;;;18.26;44.34
79144;BME280;68551;47.484;19.092;2023-05-10T10:12:08;100554.19;;;17.68;45.14
79144;BME280;68551;47.484;19.092;2023-05-10T10:15:14;100550.53;;;18.10;44.64
79144;BME280;68551;47.484;19.092;2023-05-10T10:18:20;100554.75;;;18.37;42.60
79144;BME280;68551;47.484;19.092;2023-05-10T10:21:29;100554.53;;;17.82;43.69
79144;BME280;68551;47.484;19.092;2023-05-10T10:24:31;100542.94;;;17.85;43.25
79144;BME280;68551;47.484;19.092;2023-05-10T10:30:50;100546.91;;;18.04;43.35
79144;BME280;68551;47.484;19.092;2023-05-10T10:34:03;100526.97;;;17.82;43.21
79144;BME280;68551;47.484;19.092;2023-05-10T10:37:09;100533.16;;;18.09;42.78
79144;BME280;68551;47.484;19.092;2023-05-10T10:40:26;100536.53;;;18.41;40.38
79144;BME280;68551;47.484;19.092;2023-05-10T10:43:31;100525.50;;;18.47;40.67
79144;BME280;68551;47.484;19.092;2023-05-10T10:46:34;100518.31;;;18.40;40.33
79144;BME280;68551;47.484;19.092;2023-05-10T10:53:10;100516.59;;;18.09;41.36
79144;BME280;68551;47.484;19.092;2023-05-10T10:56:21;100506.75;;;18.38;41.08
79144;BME280;68551;47.484;19.092;2023-05-10T10:59:27;100507.75;;;18.12;40.36
79144;BME280;68551;47.484;19.092;2023-05-10T11:02:45;100504.25;;;18.42;40.03
79144;BME280;68551;47.484;19.092;2023-05-10T11:06:00;100506.72;;;18.33;40.21
79144;BME280;68551;47.484;19.092;2023-05-10T11:09:08;100503.94;;;18.18;41.03
79144;BME280;68551;47.484;19.092;2023-05-10T11:12:10;100497.28;;;18.14;40.90
79144;BME280;68551;47.484;19.092;2023-05-10T11:15:13;100483.53;;;18.29;41.58
79144;BME280;68551;47.484;19.092;2023-05-10T11:21:21;100502.72;;;17.89;41.49
79144;BME280;68551;47.484;19.092;2023-05-10T11:24:27;100486.78;;;17.96;41.49
79144;BME280;68551;47.484;19.092;2023-05-10T11:27:37;100494.44;;;17.89;41.95
79144;BME280;68551;47.484;19.092;2023-05-10T11:30:46;100479.34;;;18.06;41.23
79144;BME280;68551;47.484;19.092;2023-05-10T11:33:53;100475.28;;;18.34;40.56
79144;BME280;68551;47.484;19.092;2023-05-10T11:36:57;100486.88;;;18.36;39.17
79144;BME280;68551;47.484;19.092;2023-05-10T11:39:59;100474.06;;;17.90;40.26
79144;BME280;68551;47.484;19.092;2023-05-10T11:43:03;100486.59;;;18.38;40.39
79144;BME280;68551;47.484;19.092;2023-05-10T11:46:11;100479.34;;;18.06;40.86
79144;BME280;68551;47.484;19.092;2023-05-10T11:49:17;100468.09;;;18.23;41.32
79144;BME280;68551;47.484;19.092;2023-05-10T11:52:19;100478.03;;;18.29;41.76
79144;BME280;68551;47.484;19.092;2023-05-10T11:55:24;100489.91;;;18.35;40.90
79144;BME280;68551;47.484;19.092;2023-05-10T11:58:26;100477.78;;;18.36;40.50
79144;BME280;68551;47.484;19.092;2023-05-10T12:01:32;100462.88;;;18.42;39.43
79144;BME280;68551;47.484;19.092;2023-05-10T12:04:38;100463.16;;;18.35;39.83
79144;BME280;68551;47.484;19.092;2023-05-10T12:07:40;100469.81;;;18.60;40.08
79144;BME280;68551;47.484;19.092;2023-05-10T12:10:45;100472.28;;;18.51;40.66
79144;BME280;68551;47.484;19.092;2023-05-10T12:13:50;100469.50;;;18.51;39.53
79144;BME280;68551;47.484;19.092;2023-05-10T12:16:52;100473.91;;;18.37;39.61
79144;BME280;68551;47.484;19.092;2023-05-10T12:19:59;100467.59;;;18.52;39.94
79144;BME280;68551;47.484;19.092;2023-05-10T12:23:17;100476.41;;;18.38;39.21
79144;BME280;68551;47.484;19.092;2023-05-10T12:26:25;100470.91;;;18.59;39.49
79144;BME280;68551;47.484;19.092;2023-05-10T12:29:34;100462.88;;;18.57;39.91
79144;BME280;68551;47.484;19.092;2023-05-10T12:32:40;100467.59;;;18.67;39.94
79144;BME280;68551;47.484;19.092;2023-05-10T12:35:52;100462.38;;;18.70;39.58
79144;BME280;68551;47.484;19.092;2023-05-10T12:39:04;100456.78;;;18.40;40.30
79144;BME280;68551;47.484;19.092;2023-05-10T12:42:09;100469.19;;;18.22;40.71
79144;BME280;68551;47.484;19.092;2023-05-10T12:45:14;100453.22;;;18.24;39.38
79144;BME280;68551;47.484;19.092;2023-05-10T12:48:19;100439.94;;;18.26;39.73
79144;BME280;68551;47.484;19.092;2023-05-10T12:51:22;100428.91;;;18.26;39.91
79144;BME280;68551;47.484;19.092;2023-05-10T12:54:27;100444.44;;;18.63;40.08
79144;BME280;68551;47.484;19.092;2023-05-10T12:57:29;100438.03;;;18.42;40.20
79144;BME280;68551;47.484;19.092;2023-05-10T13:00:32;100432.22;;;18.18;40.03
79144;BME280;68551;47.484;19.092;2023-05-10T13:03:37;100431.13;;;18.45;39.37
79144;BME280;68551;47.484;19.092;2023-05-10T13:06:42;100425.88;;;18.53;39.70
79144;BME280;68551;47.484;19.092;2023-05-10T13:09:44;100434.78;;;18.60;39.26
79144;BME280;68551;47.484;19.092;2023-05-10T13:12:47;100419.28;;;18.49;39.51
79144;BME280;68551;47.484;19.092;2023-05-10T13:15:51;100418.47;;;18.84;38.78
79144;BME280;68551;47.484;19.092;2023-05-10T13:18:54;100406.34;;;18.75;38.91
79144;BME280;68551;47.484;19.092;2023-05-10T13:22:01;100401.94;;;18.64;39.10
79144;BME280;68551;47.484;19.092;2023-05-10T13:25:04;100405.78;;;18.53;38.67
79144;BME280;68551;47.484;19.092;2023-05-10T13:28:09;100409.09;;;18.70;37.41
79144;BME280;68551;47.484;19.092;2023-05-10T13:31:13;100385.06;;;18.55;37.94
79144;BME280;68551;47.484;19.092;2023-05-10T13:34:21;100389.47;;;18.56;38.28
79144;BME280;68551;47.484;19.092;2023-05-10T13:37:23;100377.59;;;18.86;38.00
79144;BME280;68551;47.484;19.092;2023-05-10T13:40:26;100385.88;;;18.86;37.75
79144;BME280;68551;47.484;19.092;2023-05-10T13:43:29;100378.19;;;18.78;37.22
79144;BME280;68551;47.484;19.092;2023-05-10T13:46:31;100394.16;;;18.56;37.08
79144;BME280;68551;47.484;19.092;2023-05-10T13:49:38;100355.53;;;18.56;37.49
79144;BME280;68551;47.484;19.092;2023-05-10T13:52:42;100380.34;;;18.91;37.78
79144;BME280;68551;47.484;19.092;2023-05-10T13:55:47;100376.53;;;18.62;36.63
79144;BME280;68551;47.484;19.092;2023-05-10T13:58:49;100373.72;;;18.92;36.99
79144;BME280;68551;47.484;19.092;2023-05-10T14:01:52;100369.28;;;19.01;36.16
79144;BME280;68551;47.484;19.092;2023-05-10T14:04:56;100350.56;;;18.73;36.17
79144;BME280;68551;47.484;19.092;2023-05-10T14:07:58;100356.09;;;18.78;35.98
79144;BME280;68551;47.484;19.092;2023-05-10T14:11:05;100354.69;;;18.86;36.16
79144;BME280;68551;47.484;19.092;2023-05-10T14:14:10;100353.56;;;18.87;36.27
79144;BME280;68551;47.484;19.092;2023-05-10T14:17:15;100356.06;;;18.93;35.50
79144;BME280;68551;47.484;19.092;2023-05-10T14:20:19;100350.50;;;19.03;34.19
79144;BME280;68551;47.484;19.092;2023-05-10T14:23:22;100358.22;;;19.01;31.76
79144;BME280;68551;47.484;19.092;2023-05-10T14:26:27;100348.91;;;18.72;32.75
79144;BME280;68551;47.484;19.092;2023-05-10T14:29:32;100346.72;;;18.64;34.23
79144;BME280;68551;47.484;19.092;2023-05-10T14:32:34;100342.84;;;18.45;35.28
79144;BME280;68551;47.484;19.092;2023-05-10T14:35:39;100354.97;;;18.54;35.37
79144;BME280;68551;47.484;19.092;2023-05-10T14:38:46;100332.91;;;18.69;35.53
79144;BME280;68551;47.484;19.092;2023-05-10T14:41:51;100327.63;;;18.83;35.15
79144;BME280;68551;47.484;19.092;2023-05-10T14:44:56;100342.53;;;18.92;35.75
79144;BME280;68551;47.484;19.092;2023-05-10T14:47:58;100343.09;;;18.84;35.09
79144;BME280;68551;47.484;19.092;2023-05-10T14:51:08;100349.22;;;18.65;36.29
79144;BME280;68551;47.484;19.092;2023-05-10T14:54:13;100341.47;;;18.77;37.10
79144;BME280;68551;47.484;19.092;2023-05-10T14:57:16;100343.09;;;18.89;37.23
79144;BME280;68551;47.484;19.092;2023-05-10T15:00:20;100346.44;;;18.70;36.71
79144;BME280;68551;47.484;19.092;2023-05-10T15:03:25;100358.56;;;18.44;37.32
79144;BME280;68551;47.484;19.092;2023-05-10T15:06:31;100374.56;;;18.12;36.93
79144;BME280;68551;47.484;19.092;2023-05-10T15:09:39;100353.34;;;18.17;36.64
79144;BME280;68551;47.484;19.092;2023-05-10T15:12:44;100342.03;;;18.24;36.51
79144;BME280;68551;47.484;19.092;2023-05-10T15:15:49;100349.75;;;18.22;36.23
79144;BME280;68551;47.484;19.092;2023-05-10T15:18:57;100351.13;;;18.19;36.00
79144;BME280;68551;47.484;19.092;2023-05-10T15:21:59;100359.13;;;18.31;35.51
79144;BME280;68551;47.484;19.092;2023-05-10T15:25:02;100362.72;;;18.36;35.13
79144;BME280;68551;47.484;19.092;2023-05-10T15:28:09;100321.59;;;18.50;35.51
79144;BME280;68551;47.484;19.092;2023-05-10T15:31:15;100345.31;;;18.76;35.66
79144;BME280;68551;47.484;19.092;2023-05-10T15:34:20;100346.16;;;18.72;35.47
79144;BME280;68551;47.484;19.092;2023-05-10T15:37:23;100338.44;;;18.49;35.90
79144;BME280;68551;47.484;19.092;2023-05-10T15:40:26;100345.03;;;18.58;36.29
79144;BME280;68551;47.484;19.092;2023-05-10T15:43:28;100334.31;;;18.66;35.08
79144;BME280;68551;47.484;19.092;2023-05-10T15:46:31;100326.84;;;18.41;35.06
79144;BME280;68551;47.484;19.092;2023-05-10T15:49:35;100346.44;;;18.40;35.67
79144;BME280;68551;47.484;19.092;2023-05-10T15:52:38;100330.16;;;18.33;36.40
79144;BME280;68551;47.484;19.092;2023-05-10T15:55:40;100344.53;;;18.35;36.29
79144;BME280;68551;47.484;19.092;2023-05-10T15:58:45;100344.78;;;18.29;36.83
79144;BME280;68551;47.484;19.092;2023-05-10T16:01:50;100327.97;;;18.20;37.24
79144;BME280;68551;47.484;19.092;2023-05-10T16:04:52;100333.19;;;18.27;37.17
79144;BME280;68551;47.484;19.092;2023-05-10T16:07:55;100323.81;;;18.28;37.33
79144;BME280;68551;47.484;19.092;2023-05-10T16:11:00;100346.72;;;18.33;37.43
79144;BME280;68551;47.484;19.092;2023-05-10T16:14:05;100351.94;;;18.40;37.79
79144;BME280;68551;47.484;19.092;2023-05-10T16:17:08;100341.75;;;18.40;37.15
79144;BME280;68551;47.484;19.092;2023-05-10T16:20:13;100329.88;;;18.40;37.04
79144;BME280;68551;47.484;19.092;2023-05-10T16:23:18;100332.38;;;18.52;37.15